Terminal Aerodrome Forecast
Issued by NWS Cleveland, OH

Home | Current Version | Previous Version | Graphics & Text | Print | Product List | Glossary On
Versions: 1 2 3 4 5 6 7 8 9 10 11 12 13 14 15 16 17
087
FTUS41 KCLE 231731
TAFYNG
TAF
KYNG 231731Z 2318/2418 13010KT P6SM FEW250
     FM240900 12010KT P6SM VCSH OVC035
     FM241400 13011KT 6SM -SHRA OVC025=

USA.gov is the U.S. government's official web portal to all federal, state and local government web resources and services.